Time;durP1;ratioP1;P1;durP2;ratioP2;P2;SDS_P1;SDS_P2;PMS_P1;PMS_P2;Temp;Humidity;BMP_temperature;BMP_pressure;BME280_temperature;BME280_humidity;BME280_pressure;Samples;Min_cycle;Max_cycle;Signal;HPM_P1;HPM_P2
2023/07/28 00:02:03;;;;;;;9.13;4.83;;;19.70;99.90;;;;;;7297511;19;20198;-77
2023/07/28 00:04:29;;;;;;;8.27;5.17;;;19.70;99.90;;;;;;7284885;19;20688;-77
2023/07/28 00:06:54;;;;;;;8.30;4.50;;;19.60;99.90;;;;;;7284935;19;20248;-77
2023/07/28 00:09:20;;;;;;;8.50;4.77;;;19.60;99.90;;;;;;7284651;19;20642;-77
2023/07/28 00:11:46;;;;;;;8.07;4.43;;;19.60;99.90;;;;;;7286227;19;20976;-77
2023/07/28 00:14:12;;;;;;;9.57;4.80;;;19.60;99.90;;;;;;7284946;19;20188;-77
2023/07/28 00:16:37;;;;;;;10.20;4.90;;;19.60;99.90;;;;;;7295101;19;20714;-76
2023/07/28 00:19:03;;;;;;;8.47;4.70;;;19.60;99.90;;;;;;7296168;19;20214;-77
2023/07/28 00:21:29;;;;;;;10.13;4.63;;;19.60;99.90;;;;;;7281959;19;20983;-77
2023/07/28 00:23:54;;;;;;;10.43;4.97;;;19.50;99.90;;;;;;7284244;19;20193;-78
2023/07/28 00:26:20;;;;;;;11.57;4.63;;;19.60;99.90;;;;;;7282550;19;20190;-77
2023/07/28 00:28:46;;;;;;;11.00;5.03;;;19.50;99.90;;;;;;7283015;19;20204;-77
2023/07/28 00:31:13;;;;;;;10.23;4.60;;;19.50;99.90;;;;;;7283042;19;20186;-77
2023/07/28 00:33:39;;;;;;;8.60;4.80;;;19.50;99.90;;;;;;7284642;19;20566;-76
2023/07/28 00:36:04;;;;;;;8.73;5.00;;;19.50;99.90;;;;;;7303782;19;20203;-77
2023/07/28 00:38:31;;;;;;;9.13;5.13;;;19.60;99.90;;;;;;7282604;19;20575;-77
2023/07/28 00:40:58;;;;;;;9.70;4.77;;;19.50;99.90;;;;;;7284141;19;20202;-77
2023/07/28 00:43:24;;;;;;;10.63;4.97;;;19.50;99.90;;;;;;7282840;19;20675;-77
2023/07/28 00:45:50;;;;;;;8.87;4.53;;;19.60;99.90;;;;;;7281772;19;20324;-76
2023/07/28 00:48:17;;;;;;;8.67;4.30;;;19.60;99.90;;;;;;7281187;19;20815;-77
2023/07/28 00:50:45;;;;;;;14.47;5.40;;;19.60;99.90;;;;;;7283391;19;20240;-77
2023/07/28 00:53:11;;;;;;;8.33;4.90;;;19.60;99.90;;;;;;7282398;19;20193;-77
2023/07/28 00:55:38;;;;;;;10.07;4.97;;;19.60;99.90;;;;;;7291493;19;20747;-76
2023/07/28 00:58:04;;;;;;;10.67;5.00;;;19.60;99.90;;;;;;7304477;19;20185;-77
2023/07/28 01:00:30;;;;;;;9.23;5.07;;;19.60;99.90;;;;;;7280435;19;20182;-78
2023/07/28 01:02:56;;;;;;;9.83;4.90;;;19.60;99.90;;;;;;7282000;19;20202;-77
2023/07/28 01:05:30;;;;;;;9.20;4.90;;;19.70;99.90;;;;;;7282412;19;20196;-78
2023/07/28 01:08:11;;;;;;;7.23;4.50;;;19.80;99.90;;;;;;7281753;19;20194;-77
2023/07/28 01:10:39;;;;;;;9.97;4.47;;;19.90;99.90;;;;;;7275909;19;20588;-76
2023/07/28 01:13:04;;;;;;;11.23;5.00;;;19.90;99.90;;;;;;7304555;19;20188;-77
2023/07/28 01:15:30;;;;;;;8.77;5.00;;;19.90;99.90;;;;;;7282358;19;20186;-77
2023/07/28 01:17:56;;;;;;;10.83;4.90;;;19.90;99.90;;;;;;7281654;19;20197;-77
2023/07/28 01:20:28;;;;;;;8.10;4.60;;;19.90;99.90;;;;;;7282517;19;20189;-77
2023/07/28 01:23:14;;;;;;;7.77;4.83;;;19.90;99.90;;;;;;7281451;19;20198;-77
2023/07/28 01:26:01;;;;;;;11.70;4.90;;;19.90;99.90;;;;;;7260355;19;20223;-77
2023/07/28 01:28:28;;;;;;;8.17;4.60;;;19.90;99.90;;;;;;7282064;19;20197;-77
2023/07/28 01:30:53;;;;;;;10.47;4.80;;;19.90;99.90;;;;;;7279865;19;20268;-77
2023/07/28 01:33:19;;;;;;;10.80;4.80;;;19.70;99.90;;;;;;7281576;19;20577;-77
2023/07/28 01:35:45;;;;;;;11.60;4.53;;;19.80;99.90;;;;;;7282173;19;20662;-76
2023/07/28 01:38:12;;;;;;;9.43;5.00;;;19.90;99.90;;;;;;7281990;19;20558;-77
2023/07/28 01:40:38;;;;;;;9.63;4.70;;;19.90;99.90;;;;;;7287868;19;20218;-76
2023/07/28 01:43:04;;;;;;;7.83;4.23;;;19.80;99.90;;;;;;7301892;19;20557;-77
2023/07/28 01:45:30;;;;;;;10.20;5.40;;;19.80;99.90;;;;;;7281071;19;20192;-77
2023/07/28 01:47:56;;;;;;;6.37;4.03;;;19.80;99.90;;;;;;7279609;19;20186;-78
2023/07/28 01:50:21;;;;;;;6.83;4.07;;;19.80;99.90;;;;;;7282001;19;20188;-77
2023/07/28 01:52:47;;;;;;;7.97;4.23;;;19.80;99.90;;;;;;7281255;19;20177;-77
2023/07/28 01:55:13;;;;;;;7.83;4.70;;;19.90;99.90;;;;;;7280795;19;20189;-77
2023/07/28 01:57:39;;;;;;;8.77;4.60;;;19.90;99.90;;;;;;7283698;19;20221;-77
2023/07/28 02:00:06;;;;;;;10.03;4.67;;;19.90;99.90;;;;;;7303414;19;20227;-77
2023/07/28 02:02:39;;;;;;;8.40;4.80;;;19.90;99.90;;;;;;7260063;19;20189;-77
2023/07/28 02:05:06;;;;;;;10.83;4.50;;;20.00;99.90;;;;;;7302011;19;20314;-77
2023/07/28 02:07:31;;;;;;;9.70;4.37;;;20.00;99.90;;;;;;7280933;19;20216;-77
2023/07/28 02:09:57;;;;;;;9.90;5.13;;;20.00;99.90;;;;;;7281397;19;20275;-77
2023/07/28 02:12:23;;;;;;;8.40;4.63;;;20.00;99.90;;;;;;7280916;19;20517;-77
2023/07/28 02:14:50;;;;;;;10.50;4.90;;;20.00;99.90;;;;;;7278971;19;20185;-77
2023/07/28 02:17:16;;;;;;;7.77;4.57;;;20.00;99.90;;;;;;7281997;19;20194;-77
2023/07/28 02:19:42;;;;;;;11.13;4.70;;;20.00;99.90;;;;;;7279134;19;20191;-77
2023/07/28 02:22:07;;;;;;;8.57;4.60;;;20.10;99.90;;;;;;7296510;19;20193;-77
2023/07/28 02:24:33;;;;;;;7.73;4.97;;;20.10;99.90;;;;;;7292798;19;20680;-77
2023/07/28 02:26:59;;;;;;;8.37;4.50;;;20.20;99.90;;;;;;7280115;19;20197;-78
2023/07/28 02:29:25;;;;;;;9.20;4.87;;;20.20;99.90;;;;;;7280069;19;20211;-77
2023/07/28 02:31:51;;;;;;;13.57;4.83;;;20.20;99.90;;;;;;7281046;19;20190;-77
2023/07/28 02:34:17;;;;;;;9.73;4.70;;;20.20;99.90;;;;;;7279422;19;20188;-77
2023/07/28 02:36:42;;;;;;;9.23;4.77;;;20.10;99.90;;;;;;7279519;19;20549;-77
2023/07/28 02:39:08;;;;;;;11.03;4.70;;;20.10;99.90;;;;;;7289156;19;20197;-77
2023/07/28 02:41:34;;;;;;;9.77;4.60;;;20.00;99.90;;;;;;7299440;19;20190;-78
2023/07/28 02:43:59;;;;;;;8.40;4.93;;;20.00;99.90;;;;;;7285987;19;20630;-77
2023/07/28 02:46:25;;;;;;;11.00;4.80;;;20.00;99.90;;;;;;7286872;19;20199;-77
2023/07/28 02:48:51;;;;;;;9.00;4.70;;;20.00;99.90;;;;;;7285752;19;20189;-77
2023/07/28 02:51:17;;;;;;;9.50;4.30;;;20.00;99.90;;;;;;7287328;19;20253;-77
2023/07/28 02:53:43;;;;;;;9.87;4.40;;;20.00;99.90;;;;;;7285589;19;20186;-77
2023/07/28 02:56:09;;;;;;;9.70;4.93;;;20.00;99.90;;;;;;7288604;19;20193;-77
2023/07/28 02:58:34;;;;;;;8.57;4.70;;;20.10;99.90;;;;;;7308303;19;20185;-77
2023/07/28 03:01:00;;;;;;;8.67;4.40;;;20.10;99.90;;;;;;7284032;19;20182;-77
2023/07/28 03:03:33;;;;;;;8.77;4.20;;;20.10;99.90;;;;;;7284199;19;20217;-77
2023/07/28 03:05:59;;;;;;;6.97;4.40;;;20.00;99.90;;;;;;7282115;19;20190;-77
2023/07/28 03:08:25;;;;;;;10.00;4.60;;;20.00;99.90;;;;;;7280649;19;20554;-77
2023/07/28 03:10:58;;;;;;;8.90;4.70;;;19.90;99.90;;;;;;7284829;19;20204;-77
2023/07/28 03:13:24;;;;;;;9.97;4.40;;;19.80;99.90;;;;;;7284668;19;20186;-77
2023/07/28 03:15:50;;;;;;;10.93;4.40;;;19.80;99.90;;;;;;7284489;19;20188;-77
2023/07/28 03:18:18;;;;;;;10.13;4.00;;;19.80;99.90;;;;;;7285228;19;20185;-77
2023/07/28 03:20:44;;;;;;;9.73;4.40;;;19.80;99.90;;;;;;7284860;19;20185;-76
2023/07/28 03:23:09;;;;;;;11.17;4.67;;;19.90;99.90;;;;;;7286270;19;20192;-76
2023/07/28 03:25:35;;;;;;;9.10;4.50;;;20.00;99.90;;;;;;7307355;19;20193;-77
2023/07/28 03:28:01;;;;;;;12.63;4.20;;;20.00;99.90;;;;;;7284283;19;20659;-77
2023/07/28 03:30:26;;;;;;;8.57;4.37;;;20.00;99.90;;;;;;7284507;19;20189;-77
2023/07/28 03:32:52;;;;;;;10.30;4.23;;;20.00;99.90;;;;;;7285205;19;20192;-77
2023/07/28 03:35:18;;;;;;;10.00;4.40;;;20.00;99.90;;;;;;7285209;19;20193;-76
2023/07/28 03:37:51;;;;;;;8.97;4.40;;;19.90;99.90;;;;;;7285685;19;20838;-76
2023/07/28 03:40:17;;;;;;;9.70;4.27;;;19.90;99.90;;;;;;7285085;19;20201;-76
2023/07/28 03:42:48;;;;;;;10.33;4.47;;;20.00;99.90;;;;;;7284348;19;20196;-75
2023/07/28 03:45:14;;;;;;;9.27;4.20;;;20.00;99.90;;;;;;7284210;19;20190;-76
2023/07/28 03:47:40;;;;;;;11.53;3.97;;;20.00;99.90;;;;;;7283143;19;20225;-75
2023/07/28 03:50:06;;;;;;;12.13;3.60;;;20.10;99.90;;;;;;7307239;19;20185;-76
2023/07/28 03:52:31;;;;;;;8.73;4.00;;;20.10;99.90;;;;;;7284772;19;20190;-76
2023/07/28 03:54:57;;;;;;;7.93;3.47;;;20.10;99.90;;;;;;7285202;19;20212;-76
2023/07/28 03:57:23;;;;;;;10.17;4.03;;;20.20;99.90;;;;;;7284695;19;20198;-77
2023/07/28 03:59:49;;;;;;;10.47;3.40;;;20.20;99.90;;;;;;7283150;19;20190;-76
2023/07/28 04:02:14;;;;;;;7.97;3.40;;;20.10;99.90;;;;;;7284305;19;20646;-76
2023/07/28 04:04:40;;;;;;;11.07;3.80;;;20.10;99.90;;;;;;7284485;19;20898;-75
2023/07/28 04:07:06;;;;;;;11.67;3.47;;;20.20;99.90;;;;;;7304085;19;20260;-76
2023/07/28 04:09:31;;;;;;;7.47;3.57;;;20.20;99.90;;;;;;7283867;19;20185;-76
2023/07/28 04:11:57;;;;;;;9.57;3.50;;;20.20;99.90;;;;;;7282761;19;20204;-76
2023/07/28 04:14:23;;;;;;;5.77;3.37;;;20.20;99.90;;;;;;7283421;19;20187;-76
2023/07/28 04:16:48;;;;;;;7.97;3.63;;;20.10;99.90;;;;;;7283684;19;20223;-76
2023/07/28 04:19:14;;;;;;;7.60;3.90;;;20.20;99.90;;;;;;7281942;19;20568;-75
2023/07/28 04:21:40;;;;;;;9.00;3.73;;;20.20;99.90;;;;;;7282797;19;20213;-76
2023/07/28 04:24:09;;;;;;;7.00;3.60;;;20.20;99.90;;;;;;7305173;19;20564;-76
2023/07/28 04:26:42;;;;;;;8.13;3.67;;;20.20;99.90;;;;;;7260731;19;20292;-75
2023/07/28 04:29:08;;;;;;;6.53;3.00;;;20.20;99.90;;;;;;7297771;19;20195;-76
2023/07/28 04:31:34;;;;;;;10.47;3.57;;;20.20;99.90;;;;;;7297765;19;20850;-76
2023/07/28 04:34:04;;;;;;;10.13;3.73;;;20.10;99.90;;;;;;7282581;19;20196;-76
2023/07/28 04:36:50;;;;;;;7.30;3.33;;;20.20;99.90;;;;;;7180688;19;2004683;-76
2023/07/28 04:39:19;;;;;;;9.93;3.50;;;20.10;99.90;;;;;;7282591;19;20266;-76
2023/07/28 04:41:45;;;;;;;6.30;3.40;;;20.10;99.90;;;;;;7282059;19;20253;-76
2023/07/28 04:44:11;;;;;;;5.97;3.10;;;20.00;99.90;;;;;;7281170;19;20586;-75
2023/07/28 04:46:40;;;;;;;7.23;3.60;;;20.10;99.90;;;;;;7281771;19;20614;-75
2023/07/28 04:49:10;;;;;;;11.43;3.53;;;20.00;99.90;;;;;;7282168;19;20205;-75
2023/07/28 04:51:55;;;;;;;10.27;3.70;;;20.00;99.90;;;;;;7282144;19;21623;-75
2023/07/28 04:54:43;;;;;;;6.87;3.67;;;20.10;99.90;;;;;;7178883;19;2005135;-76
2023/07/28 04:57:09;;;;;;;7.03;3.60;;;20.10;99.90;;;;;;7284144;19;20196;-76
2023/07/28 04:59:37;;;;;;;8.40;3.50;;;20.10;99.90;;;;;;7302408;19;20194;-77
2023/07/28 05:02:03;;;;;;;7.60;3.83;;;20.10;99.90;;;;;;7281116;19;20994;-77
2023/07/28 05:04:29;;;;;;;7.47;3.90;;;20.20;99.90;;;;;;7279134;19;20191;-76
2023/07/28 05:06:55;;;;;;;9.30;4.23;;;20.30;99.90;;;;;;7280862;19;20204;-76
2023/07/28 05:09:20;;;;;;;8.57;3.63;;;20.30;99.90;;;;;;7282432;19;20215;-76
2023/07/28 05:11:46;;;;;;;7.33;3.60;;;20.20;99.90;;;;;;7280476;19;20210;-76
2023/07/28 05:14:12;;;;;;;7.40;3.50;;;20.20;99.90;;;;;;7282220;19;20190;-76
2023/07/28 05:16:37;;;;;;;6.47;3.20;;;20.20;99.90;;;;;;7303660;19;20261;-76
2023/07/28 05:19:07;;;;;;;8.77;3.33;;;20.20;99.90;;;;;;7289571;19;20193;-77
2023/07/28 05:21:51;;;;;;;5.77;3.07;;;20.20;99.90;;;;;;7180291;19;2004630;-76
2023/07/28 05:24:20;;;;;;;4.60;3.03;;;20.10;99.90;;;;;;7281597;19;20552;-77
2023/07/28 05:26:46;;;;;;;6.60;2.70;;;20.20;99.90;;;;;;7279700;19;20205;-76
2023/07/28 05:29:12;;;;;;;3.47;2.40;;;20.10;99.90;;;;;;7280869;19;20194;-77
2023/07/28 05:31:39;;;;;;;5.70;2.50;;;20.10;99.90;;;;;;7282709;19;20841;-76
2023/07/28 05:34:14;;;;;;;3.50;2.30;;;20.10;99.90;;;;;;7279929;19;20183;-77
2023/07/28 05:36:40;;;;;;;5.93;2.70;;;20.10;99.90;;;;;;7278429;19;20187;-76
2023/07/28 05:39:06;;;;;;;9.90;2.80;;;20.20;99.90;;;;;;7303648;19;20303;-77
2023/07/28 05:41:39;;;;;;;6.47;2.73;;;20.20;99.90;;;;;;7272077;19;20192;-76
2023/07/28 05:44:06;;;;;;;5.20;2.63;;;20.30;99.90;;;;;;7301094;19;20791;-77
2023/07/28 05:46:32;;;;;;;6.97;3.13;;;20.30;99.90;;;;;;7278024;19;20208;-76
2023/07/28 05:48:58;;;;;;;8.07;3.10;;;20.30;99.90;;;;;;7278108;19;20293;-76
2023/07/28 05:51:24;;;;;;;5.93;2.90;;;20.40;99.90;;;;;;7278098;19;20257;-76
2023/07/28 05:53:50;;;;;;;7.73;3.10;;;20.40;99.90;;;;;;7280029;19;20193;-76
2023/07/28 05:56:18;;;;;;;8.23;3.57;;;20.50;99.90;;;;;;7279464;19;20222;-77
2023/07/28 05:58:46;;;;;;;5.63;3.20;;;20.60;99.90;;;;;;7278669;19;20189;-76
2023/07/28 06:01:11;;;;;;;6.43;3.10;;;20.70;99.90;;;;;;7279480;19;20284;-77
2023/07/28 06:03:59;;;;;;;6.93;3.07;;;20.70;99.90;;;;;;7278645;19;20662;-76
2023/07/28 06:06:26;;;;;;;5.80;3.10;;;20.90;99.90;;;;;;7278214;19;20203;-77
2023/07/28 06:08:53;;;;;;;8.40;3.53;;;20.80;99.90;;;;;;7278979;19;20199;-77
2023/07/28 06:11:19;;;;;;;9.50;3.27;;;20.70;99.90;;;;;;7279944;19;20189;-77
2023/07/28 06:13:46;;;;;;;8.97;3.57;;;20.70;99.90;;;;;;7279812;19;20194;-77
2023/07/28 06:16:15;;;;;;;4.57;2.87;;;20.70;99.90;;;;;;7283496;19;20654;-77
2023/07/28 06:18:41;;;;;;;5.90;3.03;;;20.80;99.90;;;;;;7286573;19;20184;-77
2023/07/28 06:21:12;;;;;;;5.07;2.90;;;20.90;99.90;;;;;;7286661;19;20196;-77
2023/07/28 06:23:38;;;;;;;5.53;3.00;;;21.10;99.90;;;;;;7310727;19;20187;-77
2023/07/28 06:26:03;;;;;;;4.77;2.87;;;21.30;99.90;;;;;;7288823;19;20638;-78
2023/07/28 06:28:29;;;;;;;5.23;2.40;;;21.40;99.90;;;;;;7286429;19;20180;-77
2023/07/28 06:30:57;;;;;;;5.83;2.77;;;21.60;99.90;;;;;;7288252;19;20206;-77
2023/07/28 06:33:25;;;;;;;4.53;2.50;;;21.60;99.90;;;;;;7285691;19;20196;-77
2023/07/28 06:35:52;;;;;;;5.87;2.70;;;21.60;99.90;;;;;;7286682;19;20184;-77
2023/07/28 06:38:18;;;;;;;8.53;3.00;;;21.60;99.90;;;;;;7288636;19;20576;-77
2023/07/28 06:40:44;;;;;;;5.53;2.47;;;21.70;99.90;;;;;;7287874;19;20182;-77
2023/07/28 06:43:10;;;;;;;6.33;2.53;;;21.80;99.90;;;;;;7288560;19;20191;-77
2023/07/28 06:45:36;;;;;;;3.87;2.10;;;21.90;99.90;;;;;;7309715;19;20191;-77
2023/07/28 06:48:03;;;;;;;4.80;2.40;;;21.90;99.90;;;;;;7285514;19;20883;-77
2023/07/28 06:50:29;;;;;;;3.40;1.93;;;22.00;99.90;;;;;;7287514;19;20200;-77
2023/07/28 06:52:54;;;;;;;4.90;2.03;;;22.10;99.90;;;;;;7286504;19;20198;-78
2023/07/28 06:55:23;;;;;;;5.10;2.17;;;22.10;99.90;;;;;;7286045;19;20193;-77
2023/07/28 06:57:49;;;;;;;5.43;2.10;;;22.10;99.90;;;;;;7287663;19;20191;-75
2023/07/28 07:00:17;;;;;;;5.23;2.20;;;22.10;99.90;;;;;;7286395;19;20196;-75
2023/07/28 07:02:44;;;;;;;3.20;1.93;;;22.10;99.90;;;;;;7286833;19;20571;-75
2023/07/28 07:05:10;;;;;;;5.67;2.30;;;22.20;99.90;;;;;;7290713;19;20205;-75
2023/07/28 07:07:36;;;;;;;5.57;2.40;;;22.40;99.90;;;;;;7309488;19;20664;-78
2023/07/28 07:10:02;;;;;;;5.07;2.23;;;22.40;99.90;;;;;;7288656;19;20191;-78
2023/07/28 07:12:27;;;;;;;3.53;2.00;;;22.50;99.90;;;;;;7288616;19;20181;-78
2023/07/28 07:14:53;;;;;;;4.50;2.30;;;22.40;99.90;;;;;;7287084;19;20189;-78
2023/07/28 07:17:19;;;;;;;7.40;2.20;;;22.40;99.90;;;;;;7286389;19;20185;-78
2023/07/28 07:19:45;;;;;;;5.10;2.37;;;22.40;99.90;;;;;;7285108;19;20311;-78
2023/07/28 07:22:10;;;;;;;4.50;2.23;;;22.40;99.90;;;;;;7287609;19;20205;-78
2023/07/28 07:24:36;;;;;;;6.17;2.20;;;22.40;99.90;;;;;;7310176;19;20275;-78
2023/07/28 07:27:02;;;;;;;5.13;1.90;;;22.40;99.90;;;;;;7287402;19;20201;-77
2023/07/28 07:29:28;;;;;;;3.90;2.00;;;22.30;99.90;;;;;;7286171;19;20189;-77
2023/07/28 07:31:55;;;;;;;3.60;2.00;;;22.40;99.90;;;;;;7285132;19;20191;-77
2023/07/28 07:34:23;;;;;;;2.23;1.50;;;22.40;99.90;;;;;;7284149;19;20216;-78
2023/07/28 07:36:51;;;;;;;3.80;1.80;;;22.40;99.90;;;;;;7284140;19;20201;-78
2023/07/28 07:39:17;;;;;;;2.33;1.30;;;22.40;99.90;;;;;;7280980;19;20188;-77
2023/07/28 07:41:43;;;;;;;3.90;1.37;;;22.50;99.90;;;;;;7280527;19;20667;-77
2023/07/28 07:44:08;;;;;;;4.43;1.80;;;22.40;99.90;;;;;;7299256;19;20724;-77
2023/07/28 07:46:34;;;;;;;4.07;1.80;;;22.50;99.90;;;;;;7291647;19;20216;-78
2023/07/28 07:49:00;;;;;;;5.10;1.63;;;22.40;99.90;;;;;;7286109;19;20182;-78
2023/07/28 07:51:26;;;;;;;4.73;1.70;;;22.50;99.90;;;;;;7287320;19;20256;-77
2023/07/28 07:53:52;;;;;;;4.37;1.67;;;22.60;99.90;;;;;;7286048;19;20196;-78
2023/07/28 07:56:18;;;;;;;4.47;1.60;;;22.60;99.90;;;;;;7287598;19;20189;-78
2023/07/28 07:58:43;;;;;;;3.20;1.57;;;22.60;99.90;;;;;;7286769;19;20532;-78
2023/07/28 08:01:09;;;;;;;3.40;1.57;;;22.70;99.90;;;;;;7299699;19;20623;-77
2023/07/28 08:03:37;;;;;;;3.70;1.47;;;23.00;99.90;;;;;;7303747;19;20200;-76
2023/07/28 08:06:03;;;;;;;2.33;1.27;;;23.80;99.90;;;;;;7286799;19;20205;-76
2023/07/28 08:08:30;;;;;;;2.80;1.10;;;24.30;99.90;;;;;;7285577;19;20186;-76
2023/07/28 08:10:55;;;;;;;3.10;1.00;;;24.60;99.90;;;;;;7285453;19;20229;-77
2023/07/28 08:13:21;;;;;;;3.83;0.80;;;24.50;99.90;;;;;;7286139;19;20989;-77
2023/07/28 08:15:47;;;;;;;1.70;0.97;;;24.40;99.90;;;;;;7285863;19;20726;-76
2023/07/28 08:18:14;;;;;;;1.37;0.60;;;24.20;99.90;;;;;;7285357;19;20192;-77
2023/07/28 08:20:40;;;;;;;2.50;0.67;;;23.90;99.90;;;;;;7297505;19;21038;-77
2023/07/28 08:23:06;;;;;;;1.33;0.60;;;23.90;99.90;;;;;;7306026;19;20272;-77
2023/07/28 08:25:32;;;;;;;1.20;0.87;;;24.00;99.90;;;;;;7285904;19;20663;-77
2023/07/28 08:27:57;;;;;;;2.10;0.77;;;23.70;99.90;;;;;;7282140;19;20192;-76
2023/07/28 08:30:23;;;;;;;2.13;0.80;;;23.30;99.90;;;;;;7283390;19;20196;-77
2023/07/28 08:32:49;;;;;;;3.13;1.00;;;23.10;99.90;;;;;;7284173;19;20196;-77
2023/07/28 08:35:14;;;;;;;2.50;1.50;;;23.10;99.90;;;;;;7283691;19;20259;-77
2023/07/28 08:37:40;;;;;;;4.07;1.30;;;23.30;99.90;;;;;;7286525;19;20193;-76
2023/07/28 08:40:08;;;;;;;2.37;1.30;;;23.40;99.90;;;;;;7303268;19;20188;-77
2023/07/28 08:42:39;;;;;;;2.70;1.10;;;23.40;99.90;;;;;;7282004;19;20284;-77
2023/07/28 08:45:06;;;;;;;2.03;1.20;;;23.40;99.90;;;;;;7282562;19;20579;-77
2023/07/28 08:47:32;;;;;;;1.87;0.93;;;23.50;99.90;;;;;;7283601;19;20195;-77
2023/07/28 08:49:58;;;;;;;1.00;0.80;;;23.50;99.90;;;;;;7282634;19;20205;-78
2023/07/28 08:52:24;;;;;;;4.00;1.00;;;23.60;99.90;;;;;;7283241;19;20193;-76
2023/07/28 08:54:50;;;;;;;1.47;0.80;;;23.80;99.90;;;;;;7281592;19;20188;-76
2023/07/28 08:57:16;;;;;;;2.33;0.80;;;23.90;99.90;;;;;;7280237;19;20197;-76
2023/07/28 08:59:47;;;;;;;0.83;0.50;;;24.20;99.90;;;;;;7281290;19;20713;-76
2023/07/28 09:02:18;;;;;;;1.53;0.80;;;24.20;99.90;;;;;;7281563;19;20193;-75
2023/07/28 09:04:45;;;;;;;1.10;0.60;;;24.10;99.90;;;;;;7280147;19;20189;-75
2023/07/28 09:07:12;;;;;;;1.97;0.70;;;24.10;99.90;;;;;;7280650;19;20189;-76
2023/07/28 09:09:46;;;;;;;2.33;0.90;;;23.90;99.90;;;;;;7302587;19;20184;-76
2023/07/28 09:12:12;;;;;;;2.37;1.30;;;23.70;99.90;;;;;;7258946;19;20252;-77
2023/07/28 09:14:38;;;;;;;4.33;1.10;;;23.50;99.90;;;;;;7304250;19;20189;-76
2023/07/28 09:17:13;;;;;;;2.43;1.33;;;23.20;99.90;;;;;;7281301;19;20719;-76
2023/07/28 09:19:55;;;;;;;3.23;1.20;;;23.10;99.90;;;;;;7279986;19;20195;-76
2023/07/28 09:22:21;;;;;;;2.10;1.10;;;23.20;99.90;;;;;;7282721;19;20213;-76
2023/07/28 09:24:48;;;;;;;3.23;1.47;;;23.30;99.90;;;;;;7280410;19;20318;-76
2023/07/28 09:27:25;;;;;;;2.03;1.20;;;23.40;99.90;;;;;;7280906;19;20196;-76
2023/07/28 09:29:54;;;;;;;2.93;1.30;;;23.70;99.90;;;;;;7280491;19;20197;-76
2023/07/28 09:32:28;;;;;;;3.50;1.40;;;24.10;99.90;;;;;;7277903;19;20248;-76
2023/07/28 09:35:09;;;;;;;2.53;1.30;;;25.10;99.90;;;;;;7281644;19;20189;-76
2023/07/28 09:37:38;;;;;;;3.03;1.37;;;25.30;99.90;;;;;;7279336;19;20541;-76
2023/07/28 09:40:06;;;;;;;3.57;1.90;;;25.10;99.90;;;;;;7281040;19;20202;-76
2023/07/28 09:42:33;;;;;;;4.30;1.90;;;24.80;99.90;;;;;;7280332;19;20201;-76
2023/07/28 09:44:58;;;;;;;3.03;1.80;;;24.70;99.90;;;;;;7280881;19;22062;-76
2023/07/28 09:47:24;;;;;;;3.83;1.50;;;25.00;99.90;;;;;;7278852;19;20260;-76
2023/07/28 09:49:52;;;;;;;3.20;1.60;;;25.30;99.90;;;;;;7279316;19;20209;-76
2023/07/28 09:52:19;;;;;;;3.17;1.67;;;26.10;99.90;;;;;;7279406;19;20208;-77
2023/07/28 09:54:48;;;;;;;3.43;1.50;;;26.70;99.90;;;;;;7281908;19;20301;-76
2023/07/28 09:57:19;;;;;;;3.43;1.37;;;26.20;99.90;;;;;;7279878;19;20217;-76
2023/07/28 09:59:47;;;;;;;3.63;1.60;;;25.90;99.90;;;;;;7280176;19;20193;-76
2023/07/28 10:02:13;;;;;;;3.90;1.30;;;25.50;99.90;;;;;;7275400;19;20196;-76
2023/07/28 10:04:40;;;;;;;2.43;1.27;;;25.20;99.90;;;;;;7296380;19;20249;-76
2023/07/28 10:07:07;;;;;;;2.70;1.13;;;25.10;99.90;;;;;;7296575;19;20189;-76
2023/07/28 10:09:33;;;;;;;4.87;1.40;;;25.10;99.90;;;;;;7279919;19;20203;-76
2023/07/28 10:12:00;;;;;;;1.90;1.20;;;25.00;99.90;;;;;;7279165;19;20197;-76
2023/07/28 10:14:37;;;;;;;1.97;1.07;;;24.90;99.90;;;;;;7281112;19;20690;-76
2023/07/28 10:17:05;;;;;;;1.83;1.20;;;24.60;99.90;;;;;;7279671;19;20204;-76
2023/07/28 10:19:36;;;;;;;5.27;1.20;;;24.40;99.90;;;;;;7279937;19;20372;-77
2023/07/28 10:22:06;;;;;;;2.70;1.00;;;25.00;99.90;;;;;;7280162;19;20197;-76
2023/07/28 10:24:53;;;;;;;2.28;0.80;;;25.60;99.90;;;;;;7279340;19;20767;-76
2023/07/28 10:27:34;;;;;;;3.78;1.02;;;26.40;99.90;;;;;;7176897;19;2004927;-76
2023/07/28 10:30:01;;;;;;;1.80;0.70;;;27.20;99.90;;;;;;7280746;19;20273;-76
2023/07/28 10:32:30;;;;;;;3.00;0.95;;;27.10;99.90;;;;;;7277500;19;20834;-77
2023/07/28 10:35:00;;;;;;;1.83;0.90;;;26.70;99.90;;;;;;7279661;19;20211;-76
2023/07/28 10:37:26;;;;;;;3.73;0.90;;;26.00;99.90;;;;;;7279479;19;20196;-76
2023/07/28 10:40:22;;;;;;;3.53;2.10;;;25.50;99.90;;;;;;7279780;19;20199;-76
2023/07/28 10:42:48;;;;;;;3.53;1.93;;;25.00;99.90;;;;;;7176682;19;2005043;-76
2023/07/28 10:45:14;;;;;;;4.43;2.20;;;24.80;99.90;;;;;;7279855;19;20197;-76
2023/07/28 10:47:41;;;;;;;2.90;1.70;;;24.60;99.90;;;;;;7291119;19;20217;-76
2023/07/28 10:50:10;;;;;;;3.67;2.20;;;24.40;99.90;;;;;;7301557;19;20221;-76
2023/07/28 10:52:40;;;;;;;4.10;2.00;;;24.40;99.90;;;;;;7277705;19;20705;-76
2023/07/28 10:55:17;;;;;;;4.30;2.20;;;25.00;99.90;;;;;;7278570;19;20551;-76
2023/07/28 10:57:44;;;;;;;4.57;2.30;;;25.50;99.90;;;;;;7255551;19;20193;-76
2023/07/28 11:00:12;;;;;;;4.17;1.57;;;27.40;99.90;;;;;;7291391;19;20189;-75
2023/07/28 11:02:53;;;;;;;3.70;1.70;;;28.90;99.90;;;;;;7299830;19;20193;-77
2023/07/28 11:05:27;;;;;;;2.97;1.50;;;30.80;99.90;;;;;;7180580;19;2004975;-76
2023/07/28 11:07:56;;;;;;;2.35;1.65;;;31.70;99.90;;;;;;7284427;19;20189;-76
2023/07/28 11:10:23;;;;;;;1.65;1.08;;;30.90;99.90;;;;;;7285244;19;20549;-76
2023/07/28 11:12:51;;;;;;;5.70;1.70;;;31.70;99.90;;;;;;7284906;19;20184;-76
2023/07/28 11:15:18;;;;;;;2.65;1.50;;;31.70;99.90;;;;;;7283685;19;20189;-76
2023/07/28 11:17:50;;;;;;;4.45;1.58;;;31.00;99.90;;;;;;7284225;19;20220;-76
2023/07/28 11:20:18;;;;;;;4.55;1.67;;;29.90;99.90;;;;;;7284424;19;20560;-75
2023/07/28 11:22:44;;;;;;;5.35;1.20;;;29.40;99.90;;;;;;7284367;19;20205;-75
2023/07/28 11:25:11;;;;;;;2.60;1.40;;;29.10;99.90;;;;;;7293934;19;20189;-75
2023/07/28 11:27:38;;;;;;;2.58;1.30;;;28.90;99.90;;;;;;7305950;19;20206;-75
2023/07/28 11:30:05;;;;;;;3.28;1.40;;;28.90;99.90;;;;;;7283732;19;20209;-75
2023/07/28 11:32:37;;;;;;;2.55;1.67;;;29.00;99.90;;;;;;7283326;19;20654;-75
2023/07/28 11:35:11;;;;;;;2.58;1.30;;;29.00;99.90;;;;;;7282790;19;20189;-75
2023/07/28 11:37:39;;;;;;;2.00;1.20;;;28.90;99.90;;;;;;7283186;19;20196;-75
2023/07/28 11:40:07;;;;;;;3.13;1.23;;;28.30;99.90;;;;;;7283923;19;20834;-75
2023/07/28 11:42:46;;;;;;;2.78;1.27;;;27.60;99.90;;;;;;7283827;19;20185;-76
2023/07/28 11:45:13;;;;;;;2.03;1.13;;;27.90;99.90;;;;;;7261190;19;20199;-75
2023/07/28 11:47:39;;;;;;;3.10;1.30;;;28.10;99.90;;;;;;7304739;19;20185;-75
2023/07/28 11:50:05;;;;;;;2.20;1.70;;;28.70;99.90;;;;;;7284891;19;20220;-75
2023/07/28 11:52:36;;;;;;;4.15;1.85;;;28.70;99.90;;;;;;7281641;19;20178;-76
2023/07/28 11:55:05;;;;;;;3.15;1.40;;;28.90;99.90;;;;;;7281422;19;20206;-75
2023/07/28 11:57:31;;;;;;;2.97;1.80;;;29.60;99.90;;;;;;7282723;19;20190;-75
2023/07/28 11:59:57;;;;;;;2.85;1.90;;;29.80;99.90;;;;;;7283675;19;20192;-76
2023/07/28 12:02:28;;;;;;;3.50;1.70;;;28.60;99.90;;;;;;7281450;19;20560;-75
2023/07/28 12:04:54;;;;;;;2.85;1.70;;;28.10;99.90;;;;;;7281977;19;20250;-75
2023/07/28 12:07:31;;;;;;;2.75;1.50;;;27.40;99.90;;;;;;7281463;19;20193;-75
2023/07/28 12:10:01;;;;;;;6.05;1.52;;;28.20;99.90;;;;;;7282512;19;20220;-75
2023/07/28 12:12:29;;;;;;;2.22;1.55;;;29.30;99.90;;;;;;7283375;19;20193;-76
2023/07/28 12:15:04;;;;;;;4.28;1.60;;;29.30;99.90;;;;;;7283285;19;20197;-76
2023/07/28 12:17:30;;;;;;;5.15;1.20;;;30.40;99.90;;;;;;7282981;19;20212;-76
2023/07/28 12:20:00;;;;;;;3.35;1.13;;;31.30;99.90;;;;;;7282656;19;20265;-76
2023/07/28 12:22:27;;;;;;;2.83;1.33;;;31.40;99.90;;;;;;7281490;19;20208;-76
2023/07/28 12:24:53;;;;;;;3.63;1.40;;;30.30;99.90;;;;;;7281576;19;20197;-76
2023/07/28 12:27:24;;;;;;;5.25;1.13;;;30.20;99.90;;;;;;7283433;19;20196;-76
2023/07/28 12:29:51;;;;;;;5.25;1.20;;;29.60;99.90;;;;;;7281495;19;20211;-76
2023/07/28 12:32:17;;;;;;;2.08;1.23;;;29.20;99.90;;;;;;7279180;19;20274;-76
2023/07/28 12:34:42;;;;;;;3.15;1.00;;;29.30;99.90;;;;;;7283063;19;20244;-75
2023/07/28 12:37:08;;;;;;;2.28;1.20;;;28.90;99.90;;;;;;7303139;19;20586;-76
2023/07/28 12:39:40;;;;;;;3.80;1.00;;;29.20;99.90;;;;;;7280866;19;20197;-76
2023/07/28 12:42:07;;;;;;;2.50;1.10;;;29.20;99.90;;;;;;7283847;19;21045;-76
2023/07/28 12:44:33;;;;;;;2.50;1.00;;;29.00;99.90;;;;;;7281973;19;20191;-76
2023/07/28 12:46:59;;;;;;;2.97;1.00;;;28.60;99.90;;;;;;7282073;19;20196;-76
2023/07/28 12:49:25;;;;;;;5.03;1.08;;;28.20;99.90;;;;;;7281168;19;20500;-76